Tallevast, FL (34270)

6:17 AM EDT en Agosto 31, 2014 (GMT -0400)
Sarabay Woods - Whitfield | Change Station
CLOSE
Current Station
Estación meteorológica personal
Location: Sarasota, FL
Altura: 20 ft
Estaciones meteorológicas cercanas

Alt 20 ft 27.41 °N, 82.55 °W | Updated 7 seconds ago

Clear
Despejado
74.8 ° F
Sensación térmica 74 ° F
N
0.0
Viento Variable Viento desde Este
Gusts 1.0 mph

Hoy
Alta -- | Baja -- ° F
--% Posibilidad de precipitaciones
Ayer
Alta -- | Baja -- ° F
Precip. -- pul
7:08 AM 7:51 PM
Creciente, 29% visible
Presión 30.08 pul
Visibilidad 10.0 Millas
Nubes Despejado
Índice de calor 74 ° F
Punto de rocío 72 ° F
Humedad 91%
Precipitaciones 0.00 pul
Espesor de la nieve No disponible.
UV 0 de una escala de 12
Polen 4.30 de una escala de 12
Calidad del aire No disponible.
Flu Activity No disponible.
METAR KSRQ 310953Z 09006KT 10SM CLR 24/23 A3008 RMK AO2 SLP185 T02390233

More Conditions Fewer Conditions

Presión 30.08 pul
Visibilidad 10.0 Millas
Nubes Despejado
Índice de calor 74 ° F
Punto de rocío 72 ° F
Humedad 91%
Precipitaciones 0.00 pul
Espesor de la nieve No disponible.
UV 0 de una escala de 12
Polen 4.30 de una escala de 12
Calidad del aire No disponible.
Flu Activity No disponible.
METAR KSRQ 310953Z 09006KT 10SM CLR 24/23 A3008 RMK AO2 SLP185 T02390233

More Conditions Fewer Conditions

10-Day Weather Forecast

Almanac

Astronomía

Aug. 31, 2014 Salida Puesta
Hora real 7:08 AM EDT 7:51 PM EDT
Crepúsculo civil 6:45 AM EDT 8:15 PM EDT
Crepúsculo náutico 6:17 AM EDT 8:43 PM EDT
Crepúsculo astronómico 5:48 AM EDT 9:11 PM EDT
Luna 12:21 PM EDT 11:39 PM EDT
Horas de luz 13h 30m
Horas de luz
12h 42m
Tomorrow will be 1m 33s shorter.
Creciente, 29% of the Moon is Illuminated
Hoy
Creciente
Sep 2
Cuarto creciente
Sep 8
Luna llena
Sep 15
Cuarto menguante
Sep 24
Nueva

Extremos de hoy

Máximos del estado Bajos del estado

Community

WunderPhotos

Upload Photos

1,748,834 ¡fotos cargadas!

Nearby

Grosos de nieve

Estación Profundido Altura
No tenemos constancia de nieve nueva.

Actividad de terremotos

Ciudad Distance Mag. Tiempo y dato
No hay informes recientes de la actividad sísmica.
Magnitud mínima muestra es 2,5.

Temperaturas de aguas costeras

Lugar Temperatura
Clearwater Beach, FL 87.1 ° F
Port Manatee, FL 84.9 ° F
St Petersburg, FL 89.1 ° F
Old Port Tampa, FL 87.1 ° F
McKay Bay Entrance, FL 89.1 ° F

Estaciones meteorológicas cercanas